logo
Search for airport 
image banner adimage banner adimage banner ad
image banner ad

LHBA - Plangi Airport

Located in Balassagyarmat, Hungary

ICAO - LHBA, IATA -

Data provided by Airmate  

General information

Coordinates: N47°46'12" E21°48'59"
Elevation is 436 feet MSL.
 
View others Airports in Nográd

Operational data

Special qualification required
Current time UTC:
Current local time:
METAR: LHDC 161945Z AUTO 06004KT CAVOK 29/22 Q1012 NOSIG
TAF: TAF LHDC 161715Z 1618/1703 36008KT CAVOK TEMPO 1618/1622 09006KT PROB30 TEMPO 1618/1703 VRB15G25KT 4000 TSRA SHRA SCT065CB
View NOTAMs / SUP AIP / TFR affecting this airport [VIEW]
Communications frequencies: [VIEW]

Runways:

RWY identifierQFULength (ft)Width (ft)SurfaceLDA (ft)
18187066GRASS
36187066GRASS

Airport contact information

Address: Balassagyarmat Hungary

Satellite view of LHBA